Time;durP1;ratioP1;P1;durP2;ratioP2;P2;SDS_P1;SDS_P2;PMS_P1;PMS_P2;Temp;Humidity;BMP_temperature;BMP_pressure;BME280_temperature;BME280_humidity;BME280_pressure;Samples;Min_cycle;Max_cycle;Signal;HPM_P1;HPM_P2
2022/03/05 00:00:16;;;;;;;12.60;9.50;;;4.90;32.70;;;;;;5135193;27;20943;-46
2022/03/05 00:02:42;;;;;;;11.77;9.40;;;4.90;32.70;;;;;;5137247;27;20167;-46
2022/03/05 00:05:08;;;;;;;14.23;9.83;;;4.90;32.70;;;;;;5137225;27;20179;-45
2022/03/05 00:07:33;;;;;;;13.50;10.20;;;4.90;32.80;;;;;;5138257;27;20184;-43
2022/03/05 00:09:59;;;;;;;12.60;9.80;;;4.80;32.70;;;;;;5136862;27;20435;-45
2022/03/05 00:12:25;;;;;;;13.00;10.07;;;4.80;32.70;;;;;;5138333;27;20468;-44
2022/03/05 00:14:50;;;;;;;12.57;10.00;;;4.80;32.70;;;;;;5136063;27;20857;-45
2022/03/05 00:17:16;;;;;;;11.83;8.77;;;4.80;32.80;;;;;;5138077;27;20640;-45
2022/03/05 00:19:42;;;;;;;13.50;10.00;;;4.70;32.70;;;;;;5137634;27;20297;-45
2022/03/05 00:22:07;;;;;;;11.13;8.83;;;4.70;32.80;;;;;;5137926;27;20270;-44
2022/03/05 00:24:33;;;;;;;12.90;9.10;;;4.60;33.20;;;;;;5136285;27;20195;-44
2022/03/05 00:26:59;;;;;;;12.23;8.23;;;4.60;32.80;;;;;;5136391;27;20175;-45
2022/03/05 00:29:25;;;;;;;11.00;8.47;;;4.60;32.80;;;;;;5135990;27;20229;-45
2022/03/05 00:31:50;;;;;;;12.30;9.00;;;4.60;32.80;;;;;;5137481;27;20186;-45
2022/03/05 00:34:16;;;;;;;12.07;8.93;;;4.60;32.90;;;;;;5119066;27;20433;-45
2022/03/05 00:36:42;;;;;;;10.07;7.80;;;4.60;32.90;;;;;;5137353;27;20231;-45
2022/03/05 00:39:08;;;;;;;11.50;9.10;;;4.50;32.80;;;;;;5136506;27;20440;-45
2022/03/05 00:41:34;;;;;;;11.43;8.17;;;4.50;32.80;;;;;;5138721;27;20537;-45
2022/03/05 00:43:59;;;;;;;11.73;8.33;;;4.50;32.80;;;;;;5137663;27;20188;-45
2022/03/05 00:46:26;;;;;;;11.43;8.20;;;4.50;32.80;;;;;;5139169;27;20171;-45
2022/03/05 00:48:52;;;;;;;11.50;8.60;;;4.40;32.80;;;;;;5137045;27;20245;-45
2022/03/05 00:51:18;;;;;;;13.60;8.17;;;4.40;32.80;;;;;;5138499;27;20417;-45
2022/03/05 00:53:44;;;;;;;10.83;8.23;;;4.40;32.90;;;;;;5136465;27;20433;-45
2022/03/05 00:56:10;;;;;;;9.70;8.10;;;4.30;32.80;;;;;;5136659;27;20409;-45
2022/03/05 00:58:35;;;;;;;10.33;7.80;;;4.30;32.80;;;;;;5136242;27;20237;-45
2022/03/05 01:01:01;;;;;;;10.77;8.50;;;4.30;32.90;;;;;;5137501;27;20214;-45
2022/03/05 01:03:27;;;;;;;10.90;8.40;;;4.30;32.90;;;;;;5136174;27;20278;-45
2022/03/05 01:05:53;;;;;;;9.47;7.00;;;4.30;32.90;;;;;;5136980;28;20204;-45
2022/03/05 01:08:19;;;;;;;10.57;8.07;;;4.20;32.90;;;;;;5136148;28;20445;-45
2022/03/05 01:10:45;;;;;;;9.47;6.50;;;4.20;33.00;;;;;;5138792;28;20421;-45
2022/03/05 01:13:11;;;;;;;8.97;7.70;;;4.20;33.00;;;;;;5136782;28;20423;-45
2022/03/05 01:15:37;;;;;;;9.13;7.60;;;4.20;33.10;;;;;;5137835;28;20401;-45
2022/03/05 01:18:02;;;;;;;9.33;7.03;;;4.20;33.10;;;;;;5136544;27;20183;-45
2022/03/05 01:20:28;;;;;;;10.30;7.70;;;4.10;33.10;;;;;;5138660;28;20453;-45
2022/03/05 01:22:54;;;;;;;9.07;7.10;;;4.10;33.20;;;;;;5138469;28;20171;-45
2022/03/05 01:25:20;;;;;;;9.60;7.20;;;4.00;33.30;;;;;;5137616;28;20437;-45
2022/03/05 01:27:46;;;;;;;13.67;8.37;;;4.00;33.30;;;;;;5138789;28;20181;-45
2022/03/05 01:30:11;;;;;;;11.50;8.37;;;4.00;33.40;;;;;;5136147;28;20199;-45
2022/03/05 01:32:37;;;;;;;9.73;7.00;;;4.00;33.50;;;;;;5128418;28;20243;-45
2022/03/05 01:35:04;;;;;;;9.87;8.00;;;4.00;33.50;;;;;;5117100;28;20434;-45
2022/03/05 01:37:30;;;;;;;11.20;8.00;;;3.90;33.60;;;;;;5121048;28;20187;-45
2022/03/05 01:39:56;;;;;;;9.90;8.13;;;3.90;33.60;;;;;;5119110;28;20472;-45
2022/03/05 01:42:22;;;;;;;10.00;7.23;;;3.90;33.80;;;;;;5120347;28;20909;-45
2022/03/05 01:44:48;;;;;;;11.77;8.33;;;3.90;33.90;;;;;;5121091;28;20445;-45
2022/03/05 01:47:14;;;;;;;11.33;8.80;;;3.90;33.90;;;;;;5120030;28;20430;-45
2022/03/05 01:49:39;;;;;;;9.53;7.77;;;3.90;34.00;;;;;;5121503;28;20429;-45
2022/03/05 01:52:05;;;;;;;12.03;8.80;;;3.80;34.00;;;;;;5119535;28;20192;-45
2022/03/05 01:54:31;;;;;;;11.57;8.20;;;3.80;34.20;;;;;;5121978;28;20570;-45
2022/03/05 01:56:58;;;;;;;11.17;8.40;;;3.70;34.30;;;;;;5119925;28;20432;-45
2022/03/05 01:59:24;;;;;;;12.97;9.00;;;3.70;34.50;;;;;;5121690;28;20204;-45
2022/03/05 02:01:49;;;;;;;10.20;7.83;;;3.60;34.50;;;;;;5102004;28;20463;-45
2022/03/05 02:04:15;;;;;;;11.23;8.93;;;3.60;34.70;;;;;;5121341;28;20406;-45
2022/03/05 02:06:41;;;;;;;12.77;9.40;;;3.50;34.70;;;;;;5119932;28;20266;-45
2022/03/05 02:09:07;;;;;;;12.97;10.43;;;3.50;34.90;;;;;;5120601;28;20195;-45
2022/03/05 02:11:32;;;;;;;13.90;10.43;;;3.50;35.10;;;;;;5120207;28;20196;-45
2022/03/05 02:13:58;;;;;;;15.60;10.00;;;3.50;35.30;;;;;;5121341;28;20251;-45
2022/03/05 02:16:25;;;;;;;14.20;11.30;;;3.40;35.40;;;;;;5119874;28;20180;-45
2022/03/05 02:18:51;;;;;;;11.73;9.67;;;3.40;35.60;;;;;;5120910;28;20180;-45
2022/03/05 02:21:18;;;;;;;14.60;11.27;;;3.30;35.70;;;;;;5120010;28;20473;-45
2022/03/05 02:23:44;;;;;;;13.10;9.73;;;3.20;35.70;;;;;;5121587;28;20402;-45
2022/03/05 02:26:10;;;;;;;14.40;10.90;;;3.20;35.80;;;;;;5119681;28;20433;-45
2022/03/05 02:28:36;;;;;;;15.43;11.07;;;3.10;35.90;;;;;;5120483;28;20998;-45
2022/03/05 02:31:02;;;;;;;14.23;10.30;;;3.10;36.00;;;;;;5118709;28;20433;-45
2022/03/05 02:33:28;;;;;;;14.40;10.63;;;3.10;36.20;;;;;;5135799;27;20457;-45
2022/03/05 02:35:54;;;;;;;14.40;10.40;;;3.00;36.20;;;;;;5139904;27;20429;-45
2022/03/05 02:38:22;;;;;;;12.70;9.73;;;3.00;36.40;;;;;;5141173;27;20421;-45
2022/03/05 02:40:50;;;;;;;14.50;10.50;;;3.00;36.50;;;;;;5139934;27;20509;-45
2022/03/05 02:43:16;;;;;;;14.97;11.07;;;3.00;36.60;;;;;;5123805;27;20445;-45
2022/03/05 02:45:42;;;;;;;13.37;10.30;;;3.00;36.70;;;;;;5140204;27;20497;-45
2022/03/05 02:48:14;;;;;;;15.63;10.70;;;2.90;36.70;;;;;;5141336;27;20783;-45
2022/03/05 02:50:40;;;;;;;14.80;10.67;;;2.90;36.80;;;;;;5140087;27;20459;-45
2022/03/05 02:53:06;;;;;;;14.80;9.87;;;2.80;36.90;;;;;;5141245;27;20406;-45
2022/03/05 02:55:34;;;;;;;15.00;11.17;;;2.80;37.10;;;;;;5140400;27;20714;-45
2022/03/05 02:57:59;;;;;;;14.33;10.97;;;2.80;37.20;;;;;;5141126;27;20397;-45
2022/03/05 03:00:25;;;;;;;16.90;11.63;;;2.70;37.20;;;;;;5139377;27;20714;-45
2022/03/05 03:02:51;;;;;;;15.90;12.57;;;2.70;37.30;;;;;;5141013;27;20263;-45
2022/03/05 03:05:17;;;;;;;17.17;12.80;;;2.70;37.50;;;;;;5139438;27;20168;-45
2022/03/05 03:07:44;;;;;;;18.00;11.87;;;2.60;37.60;;;;;;5140613;27;20174;-45
2022/03/05 03:10:11;;;;;;;14.30;11.17;;;2.60;37.70;;;;;;5139707;27;20457;-45
2022/03/05 03:12:37;;;;;;;16.43;11.80;;;2.50;37.70;;;;;;5122418;27;20409;-45
2022/03/05 03:15:05;;;;;;;14.93;12.00;;;2.50;37.80;;;;;;5140159;27;20409;-45
2022/03/05 03:17:45;;;;;;;18.03;12.93;;;2.50;37.90;;;;;;5142087;27;20401;-45
2022/03/05 03:20:23;;;;;;;15.60;11.60;;;2.50;38.00;;;;;;5140072;27;20455;-45
2022/03/05 03:22:49;;;;;;;17.37;12.47;;;2.40;38.00;;;;;;5140819;27;20409;-45
2022/03/05 03:25:15;;;;;;;16.53;12.47;;;2.30;38.00;;;;;;5140944;27;20987;-45
2022/03/05 03:27:42;;;;;;;13.53;11.20;;;2.20;38.00;;;;;;5140356;27;20421;-45
2022/03/05 03:30:13;;;;;;;18.53;13.83;;;2.20;38.10;;;;;;5142571;27;20674;-44
2022/03/05 03:32:39;;;;;;;15.93;11.27;;;2.20;38.20;;;;;;5139723;27;20469;-45
2022/03/05 03:35:07;;;;;;;14.10;11.30;;;2.10;38.20;;;;;;5124869;27;20772;-45
2022/03/05 03:37:34;;;;;;;15.07;11.17;;;2.10;38.20;;;;;;5123157;27;20529;-47
2022/03/05 03:40:01;;;;;;;16.63;12.30;;;2.00;38.20;;;;;;5139137;27;20433;-45
2022/03/05 03:42:27;;;;;;;16.70;11.47;;;2.00;38.40;;;;;;5138192;27;20421;-45
2022/03/05 03:44:53;;;;;;;15.60;11.97;;;2.00;38.40;;;;;;5139563;27;20405;-45
2022/03/05 03:47:20;;;;;;;16.57;12.27;;;2.00;38.50;;;;;;5138062;27;20425;-45
2022/03/05 03:49:46;;;;;;;17.50;12.60;;;2.10;38.60;;;;;;5139346;27;20452;-45
2022/03/05 03:52:15;;;;;;;17.53;12.40;;;2.00;38.60;;;;;;5138832;27;20496;-45
2022/03/05 03:54:42;;;;;;;15.20;12.17;;;2.00;38.70;;;;;;5139975;27;20397;-45
2022/03/05 03:57:08;;;;;;;15.57;11.10;;;2.00;38.80;;;;;;5138210;27;20409;-45
2022/03/05 03:59:34;;;;;;;13.37;10.10;;;1.90;38.70;;;;;;5122807;27;20406;-44
2022/03/05 04:02:02;;;;;;;14.87;11.10;;;1.90;38.80;;;;;;5138749;27;20462;-45
2022/03/05 04:04:28;;;;;;;14.73;11.37;;;1.90;38.90;;;;;;5123083;27;20425;-45
2022/03/05 04:09:38;;;;;;;15.13;10.50;;;1.80;39.00;;;;;;5141180;27;20948;-45
2022/03/05 04:12:04;;;;;;;15.17;11.37;;;1.70;39.10;;;;;;5140803;27;20397;-45
2022/03/05 04:14:30;;;;;;;14.43;10.03;;;1.70;39.10;;;;;;5140382;27;20538;-45
2022/03/05 04:16:56;;;;;;;12.77;10.17;;;1.70;39.20;;;;;;5140391;27;20417;-45
2022/03/05 04:19:21;;;;;;;14.67;11.60;;;1.70;39.20;;;;;;5139328;27;20220;-45
2022/03/05 04:21:47;;;;;;;13.40;9.80;;;1.70;39.20;;;;;;5122194;27;20175;-45
2022/03/05 04:24:13;;;;;;;17.03;11.50;;;1.60;39.10;;;;;;5139300;27;20240;-45
2022/03/05 04:26:38;;;;;;;17.70;11.17;;;1.60;39.10;;;;;;5140032;27;20179;-45
2022/03/05 04:29:04;;;;;;;16.20;12.20;;;1.60;39.10;;;;;;5138360;27;20195;-45
2022/03/05 04:31:30;;;;;;;14.37;10.20;;;1.60;39.20;;;;;;5139729;27;20179;-45
2022/03/05 04:33:56;;;;;;;17.37;11.93;;;1.60;39.20;;;;;;5137324;27;20246;-45
2022/03/05 04:36:22;;;;;;;14.13;10.30;;;1.60;39.20;;;;;;5138831;27;20485;-45
2022/03/05 04:38:48;;;;;;;15.30;10.97;;;1.50;39.20;;;;;;5137456;27;20425;-45
2022/03/05 04:41:15;;;;;;;17.27;11.93;;;1.40;39.20;;;;;;5138861;27;20240;-45
2022/03/05 04:43:40;;;;;;;17.00;12.57;;;1.40;39.40;;;;;;5137985;27;20436;-45
2022/03/05 04:46:06;;;;;;;18.97;12.33;;;1.40;39.50;;;;;;5139428;27;20424;-45
2022/03/05 04:48:32;;;;;;;17.50;11.93;;;1.40;39.50;;;;;;5136793;27;20219;-45
2022/03/05 04:50:57;;;;;;;13.73;9.83;;;1.30;39.50;;;;;;5138731;27;20279;-45
2022/03/05 04:53:23;;;;;;;14.93;10.23;;;1.30;39.50;;;;;;5137586;27;20188;-45
2022/03/05 04:55:49;;;;;;;13.97;9.80;;;1.30;39.60;;;;;;5138722;27;20172;-46
2022/03/05 04:58:15;;;;;;;13.80;10.70;;;1.30;39.70;;;;;;5137157;27;20550;-45
2022/03/05 05:00:41;;;;;;;14.87;10.87;;;1.30;39.80;;;;;;5139116;27;20397;-45
2022/03/05 05:03:07;;;;;;;15.73;9.93;;;1.20;39.80;;;;;;5137826;27;20416;-46
2022/03/05 05:05:33;;;;;;;15.90;9.87;;;1.20;40.00;;;;;;5139198;28;20202;-46
2022/03/05 05:07:59;;;;;;;14.67;10.10;;;1.20;40.10;;;;;;5118872;28;20421;-47
2022/03/05 05:10:24;;;;;;;13.70;10.57;;;1.20;40.20;;;;;;5137403;27;20212;-46
2022/03/05 05:12:50;;;;;;;14.50;10.97;;;1.20;40.40;;;;;;5119876;28;20491;-46
2022/03/05 05:15:16;;;;;;;12.10;9.33;;;1.30;40.60;;;;;;5137425;27;20291;-46
2022/03/05 05:17:41;;;;;;;15.33;9.90;;;1.30;40.60;;;;;;5138393;27;20179;-46
2022/03/05 05:20:08;;;;;;;16.87;11.40;;;1.30;40.60;;;;;;5136421;28;20271;-46
2022/03/05 05:22:35;;;;;;;14.70;9.87;;;1.40;40.60;;;;;;5138316;27;20183;-46
2022/03/05 05:25:01;;;;;;;12.93;9.87;;;1.40;40.60;;;;;;5136951;27;20432;-46
2022/03/05 05:27:27;;;;;;;15.80;10.37;;;1.30;40.40;;;;;;5138687;27;20449;-46
2022/03/05 05:29:53;;;;;;;13.47;9.83;;;1.30;40.40;;;;;;5137764;27;20473;-46
2022/03/05 05:32:19;;;;;;;14.97;10.40;;;1.30;40.30;;;;;;5138513;27;20978;-46
2022/03/05 05:34:44;;;;;;;18.43;10.50;;;1.30;40.20;;;;;;5137471;27;20186;-46
2022/03/05 05:37:10;;;;;;;12.67;9.10;;;1.20;40.10;;;;;;5138991;28;20492;-46
2022/03/05 05:39:36;;;;;;;13.47;10.10;;;1.20;40.20;;;;;;5137242;28;20431;-46
2022/03/05 05:42:03;;;;;;;16.90;11.30;;;1.20;40.20;;;;;;5137285;28;20196;-47
2022/03/05 05:44:28;;;;;;;13.93;10.57;;;1.20;40.30;;;;;;5137349;28;20535;-46
2022/03/05 05:46:54;;;;;;;14.73;9.10;;;1.20;40.30;;;;;;5138806;27;20429;-47
2022/03/05 05:49:20;;;;;;;13.80;10.27;;;1.10;40.20;;;;;;5137576;27;20191;-46
2022/03/05 05:51:46;;;;;;;13.90;10.60;;;1.00;40.20;;;;;;5138404;27;20470;-46
2022/03/05 05:54:12;;;;;;;14.10;10.70;;;1.00;40.20;;;;;;5136569;28;20853;-46
2022/03/05 05:56:37;;;;;;;14.47;10.63;;;1.00;40.40;;;;;;5138395;27;20186;-46
2022/03/05 05:59:06;;;;;;;13.40;10.40;;;1.00;40.50;;;;;;5136625;27;20446;-46
2022/03/05 06:01:32;;;;;;;15.93;10.80;;;1.00;40.50;;;;;;5138036;27;20562;-46
2022/03/05 06:03:58;;;;;;;15.03;10.13;;;1.00;40.90;;;;;;5135048;27;20490;-46
2022/03/05 06:06:24;;;;;;;12.97;10.00;;;0.90;40.40;;;;;;5137868;27;20699;-46
2022/03/05 06:08:51;;;;;;;14.30;10.37;;;0.90;40.40;;;;;;5135933;27;20187;-46
2022/03/05 06:11:17;;;;;;;15.10;11.43;;;0.80;40.40;;;;;;5138457;28;20282;-46
2022/03/05 06:13:43;;;;;;;14.80;11.40;;;0.90;40.60;;;;;;5136694;28;20433;-46
2022/03/05 06:16:08;;;;;;;18.90;10.80;;;0.90;40.60;;;;;;5138614;27;20402;-46
2022/03/05 06:18:34;;;;;;;15.43;10.43;;;0.90;40.60;;;;;;5136596;27;20184;-45
2022/03/05 06:21:00;;;;;;;13.73;10.67;;;1.00;40.70;;;;;;5138553;27;20183;-47
2022/03/05 06:23:26;;;;;;;16.20;10.50;;;0.90;40.70;;;;;;5137352;27;20187;-46
2022/03/05 06:25:52;;;;;;;11.63;9.70;;;0.90;40.80;;;;;;5138580;27;20188;-46
2022/03/05 06:28:18;;;;;;;15.70;10.90;;;1.00;40.90;;;;;;5119530;27;21237;-46
2022/03/05 06:30:44;;;;;;;19.07;12.00;;;1.00;40.90;;;;;;5120908;27;20829;-46
2022/03/05 06:33:09;;;;;;;18.30;11.97;;;1.00;40.90;;;;;;5117681;27;20500;-46
2022/03/05 06:35:35;;;;;;;16.93;12.70;;;1.10;41.00;;;;;;5137991;27;20488;-46
2022/03/05 06:38:01;;;;;;;16.37;12.73;;;1.20;41.10;;;;;;5138123;27;20254;-46
2022/03/05 06:40:31;;;;;;;18.70;13.63;;;1.30;41.10;;;;;;5135691;27;20218;-46
2022/03/05 06:42:57;;;;;;;19.20;11.10;;;1.40;41.30;;;;;;5137150;27;20412;-46
2022/03/05 06:45:23;;;;;;;22.53;12.67;;;1.60;41.30;;;;;;5136627;27;20179;-46
2022/03/05 06:47:49;;;;;;;15.87;11.70;;;1.70;41.20;;;;;;5139296;27;20184;-46
2022/03/05 06:50:15;;;;;;;21.70;13.77;;;1.90;41.30;;;;;;5139251;27;20483;-47
2022/03/05 06:52:41;;;;;;;18.83;14.30;;;2.00;41.30;;;;;;5140333;27;20451;-47
2022/03/05 06:55:08;;;;;;;19.77;13.63;;;2.20;41.50;;;;;;5138168;27;20188;-46
2022/03/05 06:57:34;;;;;;;23.10;14.77;;;2.30;41.40;;;;;;5139228;27;20190;-47
2022/03/05 07:00:00;;;;;;;19.00;14.10;;;2.50;41.50;;;;;;5137934;27;20502;-47
2022/03/05 07:02:26;;;;;;;17.43;13.23;;;2.70;41.40;;;;;;5140134;27;20460;-47
2022/03/05 07:04:51;;;;;;;20.20;14.50;;;2.90;41.30;;;;;;5120248;27;20203;-47
2022/03/05 07:07:17;;;;;;;19.63;14.17;;;3.10;41.20;;;;;;5139332;27;20561;-47
2022/03/05 07:09:43;;;;;;;21.13;15.30;;;3.40;41.00;;;;;;5138303;27;20226;-47
2022/03/05 07:12:09;;;;;;;19.63;13.63;;;3.60;40.90;;;;;;5139662;27;20410;-47
2022/03/05 07:14:35;;;;;;;17.77;13.60;;;3.90;40.80;;;;;;5138463;27;20191;-47
2022/03/05 07:17:01;;;;;;;22.70;15.47;;;4.10;40.50;;;;;;5139328;27;20892;-47
2022/03/05 07:19:27;;;;;;;23.13;15.10;;;4.40;40.40;;;;;;5129301;27;20461;-46
2022/03/05 07:21:53;;;;;;;22.03;16.87;;;4.70;40.10;;;;;;5140413;27;20183;-47
2022/03/05 07:24:19;;;;;;;20.40;15.23;;;4.90;39.80;;;;;;5138016;27;20468;-47
2022/03/05 07:26:44;;;;;;;19.67;15.50;;;5.30;39.60;;;;;;5138116;27;20639;-47
2022/03/05 07:29:10;;;;;;;22.60;15.70;;;5.50;39.20;;;;;;5136156;27;20455;-47
2022/03/05 07:31:37;;;;;;;21.60;16.03;;;5.80;38.90;;;;;;5138063;27;20306;-47
2022/03/05 07:34:03;;;;;;;21.93;15.70;;;6.00;38.50;;;;;;5101163;27;20266;-47
2022/03/05 07:36:30;;;;;;;22.80;16.67;;;6.30;38.30;;;;;;5138896;27;20425;-47
2022/03/05 07:38:55;;;;;;;22.60;17.60;;;6.50;37.90;;;;;;5137304;27;20595;-47
2022/03/05 07:41:21;;;;;;;22.87;15.63;;;6.80;37.70;;;;;;5118402;27;20421;-46
2022/03/05 07:43:47;;;;;;;23.63;17.23;;;7.10;37.30;;;;;;5138072;27;20248;-46
2022/03/05 07:46:13;;;;;;;22.47;16.67;;;7.40;37.00;;;;;;5136222;27;20269;-47
2022/03/05 07:48:38;;;;;;;22.17;17.70;;;7.60;36.70;;;;;;5103347;27;20721;-47
2022/03/05 07:51:04;;;;;;;20.90;17.10;;;7.90;36.80;;;;;;5137393;27;20211;-46
2022/03/05 07:53:33;;;;;;;21.53;16.53;;;8.20;36.00;;;;;;5102657;27;20247;-47
2022/03/05 07:55:59;;;;;;;21.77;17.10;;;8.50;35.70;;;;;;5137461;27;20428;-47
2022/03/05 07:58:25;;;;;;;21.37;17.00;;;8.70;35.30;;;;;;5139623;27;20409;-47
2022/03/05 08:00:50;;;;;;;20.23;17.20;;;9.00;35.10;;;;;;5118802;27;20256;-46
2022/03/05 08:03:16;;;;;;;19.83;15.97;;;9.20;34.80;;;;;;5139001;27;20485;-47
2022/03/05 08:05:43;;;;;;;18.97;16.40;;;9.40;34.40;;;;;;5137516;27;20533;-46
2022/03/05 08:08:10;;;;;;;22.17;17.63;;;9.70;34.20;;;;;;5120971;27;20180;-46
2022/03/05 08:10:36;;;;;;;19.67;16.20;;;10.00;33.30;;;;;;5137145;27;20525;-47
2022/03/05 08:13:02;;;;;;;22.17;16.80;;;10.30;33.10;;;;;;5119995;27;20716;-47
2022/03/05 08:15:28;;;;;;;20.17;16.70;;;10.50;32.70;;;;;;5136283;27;20425;-47
2022/03/05 08:17:56;;;;;;;21.17;17.60;;;10.80;32.50;;;;;;5119922;27;20827;-47
2022/03/05 08:20:24;;;;;;;21.13;16.40;;;11.00;31.90;;;;;;5136670;27;20187;-47
2022/03/05 08:22:50;;;;;;;21.13;17.93;;;11.30;32.30;;;;;;5103294;27;20425;-46
2022/03/05 08:25:15;;;;;;;18.80;15.47;;;11.60;31.50;;;;;;5137335;27;20444;-46
2022/03/05 08:27:41;;;;;;;19.40;16.37;;;11.90;31.40;;;;;;5136972;27;20425;-46
2022/03/05 08:30:08;;;;;;;19.00;16.63;;;12.30;31.20;;;;;;5136548;27;20226;-47
2022/03/05 08:32:34;;;;;;;20.63;17.17;;;12.50;30.70;;;;;;5112892;28;20470;-46
2022/03/05 08:34:59;;;;;;;19.20;16.30;;;12.80;30.30;;;;;;5115953;28;20408;-47
2022/03/05 08:37:25;;;;;;;19.03;16.83;;;13.00;29.90;;;;;;5098972;28;20195;-47
2022/03/05 08:39:51;;;;;;;18.73;15.43;;;13.20;29.70;;;;;;5116907;28;20186;-46
2022/03/05 08:42:16;;;;;;;19.17;14.60;;;13.50;29.60;;;;;;5114384;28;20208;-46
2022/03/05 08:44:42;;;;;;;19.87;15.70;;;13.90;29.50;;;;;;5115358;28;20188;-47
2022/03/05 08:47:08;;;;;;;18.20;15.03;;;14.10;29.10;;;;;;5113649;28;20270;-46
2022/03/05 08:49:33;;;;;;;17.00;15.00;;;14.30;28.90;;;;;;5115618;28;20179;-47
2022/03/05 08:51:59;;;;;;;18.23;15.77;;;14.70;29.20;;;;;;5113665;28;20180;-47
2022/03/05 08:54:25;;;;;;;17.80;15.90;;;15.00;28.70;;;;;;5113708;28;20187;-46
2022/03/05 08:56:51;;;;;;;18.27;16.37;;;15.30;28.60;;;;;;5112996;28;20268;-47
2022/03/05 08:59:17;;;;;;;17.33;15.43;;;15.60;28.30;;;;;;5115121;28;20425;-46
2022/03/05 09:01:43;;;;;;;17.50;15.07;;;16.00;28.10;;;;;;5113618;28;20514;-47
2022/03/05 09:04:09;;;;;;;16.30;13.80;;;16.40;28.00;;;;;;5115472;28;20258;-47
2022/03/05 09:06:35;;;;;;;16.40;14.33;;;16.80;27.80;;;;;;5116456;28;20434;-47
2022/03/05 09:09:01;;;;;;;17.67;15.77;;;17.10;27.50;;;;;;5115916;28;20595;-47
2022/03/05 09:11:26;;;;;;;16.53;14.47;;;17.40;27.10;;;;;;5114990;28;20870;-47
2022/03/05 09:13:52;;;;;;;16.63;14.87;;;17.70;26.90;;;;;;5081775;28;20426;-46
2022/03/05 09:16:18;;;;;;;17.73;15.23;;;18.00;26.70;;;;;;5115076;28;20234;-48
2022/03/05 09:18:44;;;;;;;16.53;14.67;;;18.10;26.30;;;;;;5116013;28;20644;-47
2022/03/05 09:21:10;;;;;;;16.07;14.37;;;18.30;26.10;;;;;;5113023;28;20598;-47
2022/03/05 09:23:36;;;;;;;15.23;13.80;;;18.50;26.10;;;;;;5115006;28;20843;-47
2022/03/05 09:26:02;;;;;;;16.27;14.57;;;18.70;26.00;;;;;;5114015;28;20266;-47
2022/03/05 09:28:27;;;;;;;15.70;14.13;;;18.90;25.50;;;;;;5115611;28;20180;-47
2022/03/05 09:30:53;;;;;;;15.50;13.90;;;19.20;25.60;;;;;;5115628;28;20465;-47
2022/03/05 09:33:22;;;;;;;14.40;13.10;;;19.40;25.40;;;;;;5123768;27;20250;-47
2022/03/05 09:35:49;;;;;;;15.60;13.90;;;19.80;25.40;;;;;;5155880;27;20174;-47
2022/03/05 09:38:15;;;;;;;15.03;12.73;;;20.10;25.40;;;;;;5152054;27;20425;-47
2022/03/05 09:40:41;;;;;;;14.20;12.70;;;20.50;25.10;;;;;;5154931;27;20423;-47
2022/03/05 09:43:07;;;;;;;14.83;13.33;;;20.60;24.80;;;;;;5119458;27;20783;-47
2022/03/05 09:45:34;;;;;;;14.80;13.33;;;21.00;24.60;;;;;;5156556;27;20448;-47
2022/03/05 09:48:01;;;;;;;15.47;13.97;;;21.40;24.60;;;;;;5153401;27;20204;-47
2022/03/05 09:50:34;;;;;;;15.60;14.10;;;21.80;24.10;;;;;;5156559;27;20460;-47
2022/03/05 09:53:00;;;;;;;14.43;13.03;;;22.00;23.80;;;;;;5155214;27;20423;-47
2022/03/05 09:55:28;;;;;;;12.83;11.53;;;22.40;23.90;;;;;;5138540;27;20841;-46
2022/03/05 09:57:54;;;;;;;12.80;11.50;;;22.70;23.90;;;;;;5158306;27;20447;-46
2022/03/05 10:00:20;;;;;;;14.70;12.63;;;23.00;23.60;;;;;;5142822;27;20849;-46
2022/03/05 10:02:46;;;;;;;12.37;11.20;;;23.30;23.50;;;;;;5159126;27;20204;-47
2022/03/05 10:05:12;;;;;;;13.20;11.90;;;23.70;23.50;;;;;;5162098;27;20181;-47
2022/03/05 10:07:38;;;;;;;14.60;13.20;;;24.10;23.40;;;;;;5160369;27;20763;-47
2022/03/05 10:10:09;;;;;;;13.93;12.47;;;24.50;23.20;;;;;;5161292;27;20417;-46
2022/03/05 10:12:35;;;;;;;12.80;11.70;;;24.70;23.10;;;;;;5159427;27;20191;-47
2022/03/05 10:15:09;;;;;;;13.97;12.57;;;25.00;23.00;;;;;;5161660;27;20723;-46
2022/03/05 10:17:48;;;;;;;12.80;11.60;;;25.30;22.80;;;;;;5159911;27;21006;-46
2022/03/05 10:20:14;;;;;;;14.30;12.97;;;25.50;22.70;;;;;;5160139;27;20490;-46
2022/03/05 10:22:56;;;;;;;14.60;13.23;;;25.60;22.40;;;;;;5159130;27;20759;-47
2022/03/05 10:25:29;;;;;;;13.37;12.17;;;25.90;22.50;;;;;;5160432;27;20179;-46
2022/03/05 10:28:13;;;;;;;13.70;12.30;;;26.20;22.40;;;;;;5156691;27;20497;-47
2022/03/05 10:30:41;;;;;;;12.50;11.20;;;26.60;23.00;;;;;;5159826;27;20408;-48
2022/03/05 10:33:08;;;;;;;10.33;9.43;;;27.00;23.20;;;;;;5157704;27;20463;-42
2022/03/05 10:35:34;;;;;;;9.10;8.30;;;27.50;25.40;;;;;;5161398;27;20427;-43
2022/03/05 10:38:00;;;;;;;9.80;8.80;;;27.90;25.80;;;;;;5158691;27;20610;-41
2022/03/05 10:40:33;;;;;;;9.37;8.37;;;28.10;25.60;;;;;;5158877;27;20971;-42
2022/03/05 10:43:01;;;;;;;10.73;9.73;;;28.20;25.50;;;;;;5158840;27;20588;-42
2022/03/05 10:45:29;;;;;;;11.13;10.13;;;28.40;25.20;;;;;;5161053;27;20435;-43
2022/03/05 10:47:55;;;;;;;9.40;8.60;;;28.50;24.90;;;;;;5159347;27;20471;-45
2022/03/05 10:50:28;;;;;;;10.90;9.90;;;28.10;24.90;;;;;;5157656;27;20449;-42
2022/03/05 10:53:01;;;;;;;11.80;10.60;;;28.00;24.20;;;;;;5154436;27;20693;-41
2022/03/05 10:55:34;;;;;;;9.70;8.80;;;28.20;23.90;;;;;;5156988;27;20414;-44
2022/03/05 10:58:13;;;;;;;10.70;9.27;;;28.10;24.20;;;;;;5156471;27;20430;-44
2022/03/05 11:00:39;;;;;;;10.87;9.97;;;28.30;24.50;;;;;;5157461;27;20456;-41
2022/03/05 11:03:05;;;;;;;10.67;9.77;;;28.30;23.90;;;;;;5157731;27;20420;-48
2022/03/05 11:05:32;;;;;;;10.90;9.90;;;28.20;23.90;;;;;;5140097;27;20662;-42
2022/03/05 11:07:59;;;;;;;11.07;10.07;;;28.50;23.70;;;;;;5156091;27;20273;-41
2022/03/05 11:10:27;;;;;;;9.60;8.80;;;28.70;23.70;;;;;;5160875;27;20408;-45
2022/03/05 11:12:56;;;;;;;9.30;8.50;;;28.80;24.00;;;;;;5160089;27;20434;-44
2022/03/05 11:15:23;;;;;;;10.00;9.20;;;28.10;24.10;;;;;;5140245;27;20810;-42
2022/03/05 11:17:49;;;;;;;10.07;8.97;;;28.10;24.30;;;;;;5158634;27;20786;-41
2022/03/05 11:20:15;;;;;;;9.50;8.70;;;28.20;23.60;;;;;;5158447;27;20448;-43
2022/03/05 11:22:46;;;;;;;8.77;7.90;;;28.20;23.80;;;;;;5155731;27;20906;-42
2022/03/05 11:25:14;;;;;;;9.23;8.50;;;28.30;24.00;;;;;;5157640;27;20473;-41
2022/03/05 11:27:52;;;;;;;9.57;8.77;;;28.60;23.70;;;;;;5139646;27;20724;-44
2022/03/05 11:30:18;;;;;;;8.87;8.07;;;28.90;23.40;;;;;;5159065;27;20491;-45
2022/03/05 11:32:43;;;;;;;9.20;8.47;;;29.00;23.00;;;;;;5146687;27;20481;-42
2022/03/05 11:35:28;;;;;;;9.23;8.40;;;29.30;23.00;;;;;;5100845;28;20186;-44
2022/03/05 11:37:54;;;;;;;8.60;7.90;;;29.70;22.90;;;;;;5115590;28;20191;-45
2022/03/05 11:40:42;;;;;;;9.90;9.00;;;30.10;23.10;;;;;;5099819;28;20546;-42
2022/03/05 11:43:21;;;;;;;8.63;7.80;;;30.10;23.00;;;;;;5116636;28;20423;-47
2022/03/05 11:46:07;;;;;;;8.00;7.40;;;30.40;23.30;;;;;;5099165;28;20814;-44
2022/03/05 11:48:36;;;;;;;8.90;8.10;;;30.50;22.70;;;;;;5097369;28;20822;-43
2022/03/05 11:51:14;;;;;;;8.40;7.60;;;30.70;22.50;;;;;;5115554;28;20697;-46
2022/03/05 11:53:41;;;;;;;8.07;7.47;;;31.00;22.80;;;;;;5117482;27;20430;-44
2022/03/05 11:56:25;;;;;;;7.37;6.77;;;31.20;22.30;;;;;;5117200;28;20396;-44
2022/03/05 11:58:52;;;;;;;7.23;6.63;;;31.20;23.00;;;;;;5116610;28;20388;-42
2022/03/05 12:01:38;;;;;;;7.90;7.30;;;31.40;22.80;;;;;;5115411;28;20485;-45
2022/03/05 12:04:22;;;;;;;6.73;6.13;;;30.90;22.80;;;;;;5115427;28;20605;-43
2022/03/05 12:06:51;;;;;;;7.70;7.00;;;31.10;22.60;;;;;;5113107;28;20465;-44
2022/03/05 12:09:43;;;;;;;6.93;6.37;;;31.30;22.60;;;;;;5114353;28;20517;-43
2022/03/05 12:12:18;;;;;;;7.80;7.10;;;31.40;23.10;;;;;;5124279;27;20460;-42
2022/03/05 12:14:59;;;;;;;7.73;7.03;;;31.50;21.70;;;;;;5124837;27;20411;-43
2022/03/05 12:17:26;;;;;;;7.93;7.23;;;31.70;22.60;;;;;;5126983;27;20431;-46
2022/03/05 12:19:54;;;;;;;7.90;7.30;;;32.00;22.10;;;;;;5115187;28;20742;-43
2022/03/05 12:22:19;;;;;;;6.50;6.00;;;32.00;20.50;;;;;;5123976;27;20405;-45
2022/03/05 12:24:46;;;;;;;6.40;5.90;;;32.00;21.50;;;;;;5122181;27;20381;-44
2022/03/05 12:27:14;;;;;;;6.57;6.07;;;31.90;21.50;;;;;;5115905;28;20430;-43
2022/03/05 12:29:50;;;;;;;7.10;6.60;;;32.30;21.70;;;;;;5115532;28;20831;-43
2022/03/05 12:32:17;;;;;;;7.37;6.60;;;32.50;22.30;;;;;;5120074;27;20454;-42
2022/03/05 12:34:43;;;;;;;7.77;7.03;;;32.60;21.30;;;;;;5117016;28;20784;-42
2022/03/05 12:37:09;;;;;;;7.80;7.10;;;32.70;21.00;;;;;;5116158;28;20410;-42
2022/03/05 12:39:41;;;;;;;6.70;6.17;;;32.70;20.60;;;;;;5117526;28;20367;-42